Time;durP1;ratioP1;P1;durP2;ratioP2;P2;SDS_P1;SDS_P2;PMS_P1;PMS_P2;Temp;Humidity;BMP_temperature;BMP_pressure;BME280_temperature;BME280_humidity;BME280_pressure;Samples;Min_cycle;Max_cycle;Signal;HPM_P1;HPM_P2
2021/01/11 00:05:50;;;;;;;36.27;18.13;;;;;;;;;;4388694;32;20145;-77
2021/01/11 00:08:27;;;;;;;34.43;17.83;;;;;;;;;;4386604;32;20167;-78
2021/01/11 00:10:55;;;;;;;36.83;18.70;;;;;;;;;;4375319;32;20162;-77
2021/01/11 00:16:41;;;;;;;37.90;19.43;;;;;;;;;;4343266;33;20277;-78
2021/01/11 00:19:34;;;;;;;36.70;18.90;;;;;;;;;;4355509;32;20505;-77
2021/01/11 00:22:19;;;;;;;40.17;19.67;;;;;;;;;;4382921;32;20181;-78
2021/01/11 00:25:01;;;;;;;37.07;18.67;;;;;;;;;;4380632;32;20158;-78
2021/01/11 00:27:29;;;;;;;38.80;19.47;;;;;;;;;;4391449;32;20211;-78
2021/01/11 00:30:12;;;;;;;36.47;19.60;;;;;;;;;;4405543;32;20177;-78
2021/01/11 00:32:41;;;;;;;36.83;19.77;;;;;;;;;;4391229;32;20154;-77
2021/01/11 00:35:14;;;;;;;36.90;20.07;;;;;;;;;;4391269;32;20232;-78
2021/01/11 00:37:46;;;;;;;37.77;19.63;;;;;;;;;;4391710;32;20523;-78
2021/01/11 00:40:39;;;;;;;41.93;20.90;;;;;;;;;;4392910;32;20144;-78
2021/01/11 00:43:15;;;;;;;;;;;;;;;;;;;;;
2021/01/11 00:45:49;;;;;;;41.00;21.20;;;;;;;;;;4342826;33;20155;-78
2021/01/11 00:48:41;;;;;;;42.43;21.67;;;;;;;;;;4342987;33;20601;-78
2021/01/11 00:51:10;;;;;;;42.87;22.33;;;;;;;;;;4326399;33;20207;-78
2021/01/11 00:53:36;;;;;;;46.60;21.90;;;;;;;;;;4343225;33;20572;-78
2021/01/11 00:56:26;;;;;;;43.80;21.67;;;;;;;;;;4387334;32;20193;-78
2021/01/11 00:59:25;;;;;;;;;;;;;;;;;;;;;
2021/01/11 01:02:01;;;;;;;45.67;22.80;;;;;;;;;;4398283;32;20498;-78
2021/01/11 01:04:35;;;;;;;46.73;24.40;;;;;;;;;;4389853;32;20656;-77
2021/01/11 01:07:19;;;;;;;48.67;24.50;;;;;;;;;;4391269;32;20187;-78
2021/01/11 01:10:07;;;;;;;;;;;;;;;;;;;;;
2021/01/11 01:12:47;;;;;;;48.47;24.40;;;;;;;;;;4405205;32;20142;-77
2021/01/11 01:15:19;;;;;;;52.00;25.40;;;;;;;;;;4391207;32;20498;-77
2021/01/11 01:18:17;;;;;;;53.50;26.47;;;;;;;;;;4388420;32;20505;-77
2021/01/11 01:20:56;;;;;;;55.23;26.57;;;;;;;;;;4369994;32;20229;-78
2021/01/11 01:23:32;;;;;;;57.13;26.87;;;;;;;;;;4389257;32;20200;-77
2021/01/11 01:26:07;;;;;;;;;;;;;;;;;;;;;
2021/01/11 01:28:33;;;;;;;51.23;24.97;;;;;;;;;;4408626;32;20129;-77
2021/01/11 01:31:01;;;;;;;50.73;25.03;;;;;;;;;;4393287;32;20154;-77
2021/01/11 01:36:28;;;;;;;52.50;25.20;;;;;;;;;;4407192;32;20260;-77
2021/01/11 01:38:53;;;;;;;54.63;25.57;;;;;;;;;;4392807;32;20165;-77
2021/01/11 01:41:30;;;;;;;53.70;26.57;;;;;;;;;;4393672;32;20157;-77
2021/01/11 01:44:16;;;;;;;52.57;25.40;;;;;;;;;;4407371;32;20467;-77
2021/01/11 01:46:56;;;;;;;49.70;25.37;;;;;;;;;;4407022;32;20245;-77
2021/01/11 01:52:53;;;;;;;56.30;27.40;;;;;;;;;;4407477;32;20134;-77
2021/01/11 01:58:29;;;;;;;57.33;27.53;;;;;;;;;;4371562;32;20154;-77
2021/01/11 02:01:03;;;;;;;57.63;27.67;;;;;;;;;;4393632;32;20180;-77
2021/01/11 02:03:39;;;;;;;;;;;;;;;;;;;;;
2021/01/11 02:06:17;;;;;;;;;;;;;;;;;;;;;
2021/01/11 02:09:20;;;;;;;54.27;26.77;;;;;;;;;;4384447;32;20150;-77
2021/01/11 02:12:08;;;;;;;59.57;29.67;;;;;;;;;;4406802;32;20515;-77
2021/01/11 02:27:40;;;;;;;59.40;27.70;;;;;;;;;;4407229;32;20243;-77
2021/01/11 02:30:08;;;;;;;58.53;28.10;;;;;;;;;;4406765;32;20134;-77
2021/01/11 02:32:50;;;;;;;;;;;;;;;;;;;;;
2021/01/11 02:35:18;;;;;;;58.10;26.47;;;;;;;;;;4391139;32;20284;-77
2021/01/11 02:37:44;;;;;;;66.70;29.13;;;;;;;;;;4406857;32;20676;-77
2021/01/11 02:40:18;;;;;;;64.10;28.67;;;;;;;;;;4406650;32;20130;-77
2021/01/11 02:43:11;;;;;;;65.37;29.70;;;;;;;;;;4406873;32;20122;-77
2021/01/11 02:45:42;;;;;;;65.00;28.67;;;;;;;;;;4393088;32;20158;-77
2021/01/11 02:51:55;;;;;;;64.53;29.57;;;;;;;;;;4286477;33;20212;-77
2021/01/11 02:57:37;;;;;;;63.90;29.07;;;;;;;;;;4287163;33;20187;-77
2021/01/11 03:00:30;;;;;;;66.27;30.30;;;;;;;;;;4320929;33;20238;-77
2021/01/11 03:02:59;;;;;;;65.87;28.90;;;;;;;;;;4368379;32;20203;-77
2021/01/11 03:05:28;;;;;;;74.37;31.33;;;;;;;;;;4406210;32;20138;-76
2021/01/11 03:07:54;;;;;;;65.87;31.20;;;;;;;;;;4392366;32;20161;-77
2021/01/11 03:10:29;;;;;;;70.30;29.70;;;;;;;;;;4392385;32;20172;-77
2021/01/11 03:12:54;;;;;;;71.83;30.40;;;;;;;;;;4392234;32;20244;-77
2021/01/11 03:15:32;;;;;;;;;;;;;;;;;;;;;
2021/01/11 03:17:58;;;;;;;73.07;32.40;;;;;;;;;;4403679;32;20184;-77
2021/01/11 03:20:33;;;;;;;72.40;30.50;;;;;;;;;;4392243;32;20150;-77
2021/01/11 03:22:58;;;;;;;73.23;30.30;;;;;;;;;;4392811;32;20157;-77
2021/01/11 03:28:42;;;;;;;70.97;30.67;;;;;;;;;;4329499;33;20181;-77
2021/01/11 03:31:07;;;;;;;76.80;31.40;;;;;;;;;;4341989;32;20207;-77
2021/01/11 03:33:45;;;;;;;71.97;31.20;;;;;;;;;;4392215;32;20563;-77
2021/01/11 03:36:10;;;;;;;68.47;30.80;;;;;;;;;;4406658;32;20130;-77
2021/01/11 03:38:35;;;;;;;73.23;31.73;;;;;;;;;;4406553;32;20524;-77
2021/01/11 03:41:24;;;;;;;79.87;32.50;;;;;;;;;;4391587;32;20470;-77
2021/01/11 03:44:00;;;;;;;70.83;29.90;;;;;;;;;;4380837;32;20176;-76
2021/01/11 03:49:19;;;;;;;72.40;30.70;;;;;;;;;;4405975;32;20204;-77
2021/01/11 03:51:44;;;;;;;80.00;33.27;;;;;;;;;;4392165;32;20600;-77
2021/01/11 03:54:26;;;;;;;70.07;29.87;;;;;;;;;;4391486;32;20188;-77
2021/01/11 03:57:57;;;;;;;80.63;32.60;;;;;;;;;;4391699;32;20626;-77
2021/01/11 04:00:16;;;;;;;78.20;32.93;;;;;;;;;;4398785;32;20284;-77
2021/01/11 04:03:13;;;;;;;87.80;35.47;;;;;;;;;;4405893;32;20208;-77
2021/01/11 04:05:57;;;;;;;75.97;32.63;;;;;;;;;;4394413;32;20190;-77
2021/01/11 04:08:28;;;;;;;82.20;33.10;;;;;;;;;;4405561;32;20157;-77
2021/01/11 04:11:03;;;;;;;83.20;33.17;;;;;;;;;;4405560;32;20220;-76
2021/01/11 04:13:37;;;;;;;78.83;32.07;;;;;;;;;;4406322;32;20165;-77
2021/01/11 04:16:03;;;;;;;87.33;34.30;;;;;;;;;;4391496;32;20181;-77
2021/01/11 04:18:28;;;;;;;79.43;32.93;;;;;;;;;;4405724;32;20180;-78
2021/01/11 04:20:56;;;;;;;84.83;34.07;;;;;;;;;;4391733;32;20188;-76
2021/01/11 04:23:28;;;;;;;78.40;32.63;;;;;;;;;;4391510;32;20149;-77
2021/01/11 04:25:56;;;;;;;73.53;33.13;;;;;;;;;;4391718;32;20188;-77
2021/01/11 04:28:36;;;;;;;74.70;32.27;;;;;;;;;;4391303;32;20185;-77
2021/01/11 04:31:02;;;;;;;71.83;31.23;;;;;;;;;;4390443;32;20207;-77
2021/01/11 04:33:27;;;;;;;70.80;30.33;;;;;;;;;;4391252;32;20157;-77
2021/01/11 04:35:58;;;;;;;74.37;32.63;;;;;;;;;;4404986;32;20213;-76
2021/01/11 04:38:26;;;;;;;73.70;30.70;;;;;;;;;;4391327;32;20215;-77
2021/01/11 04:40:51;;;;;;;63.93;30.80;;;;;;;;;;4405581;32;20203;-77
2021/01/11 04:43:18;;;;;;;65.20;31.03;;;;;;;;;;4391419;32;20219;-77
2021/01/11 04:45:51;;;;;;;68.00;31.23;;;;;;;;;;4391111;32;20180;-77
2021/01/11 04:48:38;;;;;;;59.30;27.27;;;;;;;;;;4391852;32;20166;-77
2021/01/11 04:51:06;;;;;;;57.50;28.00;;;;;;;;;;4391066;32;20168;-76
2021/01/11 04:53:33;;;;;;;51.73;24.63;;;;;;;;;;4405209;32;20225;-77
2021/01/11 04:56:04;;;;;;;58.00;28.33;;;;;;;;;;4405118;32;20169;-77
2021/01/11 04:58:52;;;;;;;47.47;24.27;;;;;;;;;;4407198;32;20130;-76
2021/01/11 05:01:30;;;;;;;;;;;;;;;;;;;;;
2021/01/11 05:03:59;;;;;;;45.97;23.77;;;;;;;;;;4408946;32;20122;-76
2021/01/11 05:09:16;;;;;;;44.37;22.60;;;;;;;;;;4405034;32;20146;-76
2021/01/11 05:11:48;;;;;;;45.77;22.53;;;;;;;;;;4394646;32;20216;-76
2021/01/11 05:17:59;;;;;;;;;;;;;;;;;;;;;
2021/01/11 05:20:12;;;;;;;43.43;23.07;;;;;;;;;;4398880;32;20250;-76
2021/01/11 05:22:38;;;;;;;44.70;23.03;;;;;;;;;;4408270;32;20166;-77
2021/01/11 05:25:19;;;;;;;46.30;23.73;;;;;;;;;;4394144;32;20520;-77
2021/01/11 05:27:47;;;;;;;49.73;24.97;;;;;;;;;;4393878;32;20489;-76
2021/01/11 05:30:31;;;;;;;48.93;24.77;;;;;;;;;;4407772;32;20287;-77
2021/01/11 05:33:08;;;;;;;51.27;25.27;;;;;;;;;;4407898;32;20129;-77
2021/01/11 05:35:39;;;;;;;51.70;26.57;;;;;;;;;;4394120;32;20154;-77
2021/01/11 05:38:17;;;;;;;51.33;26.67;;;;;;;;;;4393953;32;20185;-77
2021/01/11 05:40:58;;;;;;;54.90;26.73;;;;;;;;;;4393692;32;20235;-77
2021/01/11 05:43:36;;;;;;;;;;;;;;;;;;;;;
2021/01/11 05:46:20;;;;;;;50.43;26.20;;;;;;;;;;4395706;32;20181;-76
2021/01/11 05:49:10;;;;;;;58.43;28.03;;;;;;;;;;4407859;32;20168;-77
2021/01/11 05:54:49;;;;;;;49.97;27.50;;;;;;;;;;4393722;32;20181;-76
2021/01/11 05:57:21;;;;;;;55.20;26.37;;;;;;;;;;4407621;32;20195;-75
2021/01/11 05:59:55;;;;;;;55.17;26.73;;;;;;;;;;4393921;32;20169;-77
2021/01/11 06:09:09;;;;;;;;;;;;;;;;;;;;;
2021/01/11 06:14:28;;;;;;;39.93;22.10;;;;;;;;;;4378459;32;20158;-76
2021/01/11 06:16:53;;;;;;;44.10;23.23;;;;;;;;;;4406982;32;20146;-76
2021/01/11 06:19:52;;;;;;;;;;;;;;;;;;;;;
2021/01/11 06:22:06;;;;;;;39.17;21.97;;;;;;;;;;4403553;32;20238;-76
2021/01/11 06:24:49;;;;;;;38.97;21.13;;;;;;;;;;4393275;32;20193;-77
2021/01/11 06:27:17;;;;;;;35.60;20.00;;;;;;;;;;4404361;32;20168;-77
2021/01/11 06:29:49;;;;;;;40.23;21.97;;;;;;;;;;4393387;32;20189;-77
2021/01/11 06:32:23;;;;;;;36.80;19.80;;;;;;;;;;4406591;32;20161;-77
2021/01/11 06:34:49;;;;;;;38.17;19.53;;;;;;;;;;4393248;32;20176;-77
2021/01/11 06:37:18;;;;;;;38.73;20.90;;;;;;;;;;4407133;32;20532;-77
2021/01/11 06:39:45;;;;;;;36.73;20.07;;;;;;;;;;4406584;32;20130;-77
2021/01/11 06:42:29;;;;;;;37.97;20.93;;;;;;;;;;4406557;32;20161;-78
2021/01/11 06:51:06;;;;;;;37.60;18.50;;;;;;;;;;4330112;33;20577;-77
2021/01/11 06:53:31;;;;;;;29.77;17.87;;;;;;;;;;4392418;32;20151;-76
2021/01/11 06:56:10;;;;;;;29.53;17.40;;;;;;;;;;4406756;32;20477;-77
2021/01/11 06:58:51;;;;;;;30.03;16.83;;;;;;;;;;4392504;32;20188;-77
2021/01/11 07:04:11;;;;;;;29.63;15.63;;;;;;;;;;4382495;32;20157;-78
2021/01/11 07:06:40;;;;;;;25.23;15.23;;;;;;;;;;4391526;32;20648;-77
2021/01/11 07:09:22;;;;;;;29.73;16.17;;;;;;;;;;4392564;32;20653;-78
2021/01/11 07:11:49;;;;;;;29.40;15.60;;;;;;;;;;4406945;32;20515;-78
2021/01/11 07:14:15;;;;;;;23.50;13.80;;;;;;;;;;4406437;32;20162;-78
2021/01/11 07:16:41;;;;;;;26.30;14.63;;;;;;;;;;4392089;32;20231;-78
2021/01/11 07:19:06;;;;;;;27.70;15.50;;;;;;;;;;4392688;32;20559;-77
2021/01/11 07:21:33;;;;;;;25.27;14.93;;;;;;;;;;4406545;32;20184;-78
2021/01/11 07:23:59;;;;;;;32.53;16.53;;;;;;;;;;4405843;32;20491;-78
2021/01/11 07:26:29;;;;;;;28.60;17.07;;;;;;;;;;4392100;32;20177;-77
2021/01/11 07:29:00;;;;;;;32.03;16.30;;;;;;;;;;4406645;32;20190;-76
2021/01/11 07:31:29;;;;;;;30.97;17.03;;;;;;;;;;4406095;32;20146;-78
2021/01/11 07:34:03;;;;;;;30.17;16.77;;;;;;;;;;4391979;32;20158;-79
2021/01/11 07:36:38;;;;;;;32.50;16.97;;;;;;;;;;4406306;32;20121;-77
2021/01/11 07:39:35;;;;;;;34.30;17.50;;;;;;;;;;4406538;32;20521;-77
2021/01/11 07:42:03;;;;;;;30.07;17.73;;;;;;;;;;4405738;32;20216;-78
2021/01/11 07:44:39;;;;;;;29.70;16.83;;;;;;;;;;4392161;32;20157;-77
2021/01/11 07:47:15;;;;;;;29.70;15.83;;;;;;;;;;4405603;32;20153;-76
2021/01/11 07:49:42;;;;;;;28.60;16.30;;;;;;;;;;4392139;32;20177;-76
2021/01/11 07:52:25;;;;;;;33.27;16.10;;;;;;;;;;4392486;32;20179;-76
2021/01/11 07:55:03;;;;;;;30.63;16.77;;;;;;;;;;4392271;32;20174;-77
2021/01/11 07:57:29;;;;;;;27.93;16.40;;;;;;;;;;4392647;32;20258;-77
2021/01/11 08:00:04;;;;;;;32.33;16.10;;;;;;;;;;4391602;32;20248;-78
2021/01/11 08:02:30;;;;;;;28.10;15.10;;;;;;;;;;4392085;32;20157;-77
2021/01/11 08:04:55;;;;;;;31.33;16.40;;;;;;;;;;4405378;32;20130;-77
2021/01/11 08:07:36;;;;;;;31.47;17.57;;;;;;;;;;4405519;32;20545;-77
2021/01/11 08:10:04;;;;;;;29.40;15.03;;;;;;;;;;4391730;32;20158;-77
2021/01/11 08:12:32;;;;;;;29.77;16.03;;;;;;;;;;4392081;32;20568;-77
2021/01/11 08:15:07;;;;;;;24.47;14.63;;;;;;;;;;4391540;32;20219;-77
2021/01/11 08:17:43;;;;;;;26.33;14.90;;;;;;;;;;4391988;32;20201;-78
2021/01/11 08:20:08;;;;;;;24.40;14.00;;;;;;;;;;4392132;32;20157;-78
2021/01/11 08:22:34;;;;;;;25.97;15.03;;;;;;;;;;4391507;32;20211;-78
2021/01/11 08:24:59;;;;;;;26.83;14.93;;;;;;;;;;4391428;32;20489;-77
2021/01/11 08:27:36;;;;;;;26.63;15.23;;;;;;;;;;4405190;32;20589;-78
2021/01/11 08:30:23;;;;;;;26.47;15.30;;;;;;;;;;4392216;32;20153;-78
2021/01/11 08:32:48;;;;;;;25.53;14.40;;;;;;;;;;4391299;32;20145;-77
2021/01/11 08:35:18;;;;;;;24.47;13.30;;;;;;;;;;4391333;32;20211;-77
2021/01/11 08:37:47;;;;;;;23.37;13.77;;;;;;;;;;4393443;32;20119;-77
2021/01/11 08:40:34;;;;;;;28.63;14.70;;;;;;;;;;4405142;32;20196;-77
2021/01/11 08:43:23;;;;;;;22.87;13.47;;;;;;;;;;4391230;32;20153;-77
2021/01/11 08:45:52;;;;;;;25.93;13.33;;;;;;;;;;4391623;32;20188;-78
2021/01/11 08:48:44;;;;;;;22.50;13.77;;;;;;;;;;4405118;32;20130;-77
2021/01/11 08:51:27;;;;;;;23.00;11.97;;;;;;;;;;4404337;32;20170;-77
2021/01/11 08:53:52;;;;;;;21.33;12.30;;;;;;;;;;4405156;32;20169;-77
2021/01/11 08:56:26;;;;;;;17.97;11.17;;;;;;;;;;4391647;32;20199;-77
2021/01/11 08:58:55;;;;;;;20.70;11.97;;;;;;;;;;4391354;32;20160;-77
2021/01/11 09:01:34;;;;;;;22.23;11.80;;;;;;;;;;4404674;32;20131;-76
2021/01/11 09:04:18;;;;;;;22.40;12.40;;;;;;;;;;4391334;32;20199;-77
2021/01/11 09:06:46;;;;;;;24.60;12.23;;;;;;;;;;4404594;32;20141;-76
2021/01/11 09:09:21;;;;;;;17.30;10.37;;;;;;;;;;4391073;32;20475;-76
2021/01/11 09:11:58;;;;;;;17.80;10.87;;;;;;;;;;4391130;32;20167;-76
2021/01/11 09:14:26;;;;;;;18.53;10.97;;;;;;;;;;4391091;32;20192;-77
2021/01/11 09:17:02;;;;;;;21.97;11.77;;;;;;;;;;4390740;32;20266;-77
2021/01/11 09:19:28;;;;;;;19.83;10.40;;;;;;;;;;4391178;32;20261;-78
2021/01/11 09:22:23;;;;;;;18.90;10.30;;;;;;;;;;4391340;32;20207;-78
2021/01/11 09:24:48;;;;;;;18.77;9.97;;;;;;;;;;4365909;32;20166;-78
2021/01/11 09:27:24;;;;;;;15.37;8.93;;;;;;;;;;4404825;32;20131;-78
2021/01/11 09:30:05;;;;;;;;;;;;;;;;;;;;;
2021/01/11 09:32:37;;;;;;;16.87;9.73;;;;;;;;;;4401293;32;20162;-78
2021/01/11 09:35:15;;;;;;;17.07;10.40;;;;;;;;;;4391417;32;20271;-77
2021/01/11 09:37:57;;;;;;;;;;;;;;;;;;;;;
2021/01/11 09:40:26;;;;;;;16.87;9.40;;;;;;;;;;4405235;32;20200;-78
2021/01/11 09:43:03;;;;;;;13.53;8.13;;;;;;;;;;4405045;32;20272;-77
2021/01/11 09:45:28;;;;;;;16.47;9.03;;;;;;;;;;4390176;32;20165;-77
2021/01/11 09:47:59;;;;;;;15.50;8.83;;;;;;;;;;4407741;32;20515;-78
2021/01/11 09:53:34;;;;;;;15.30;8.90;;;;;;;;;;4345307;33;20164;-77
2021/01/11 09:56:03;;;;;;;15.60;9.43;;;;;;;;;;4390466;32;20232;-77
2021/01/11 09:58:28;;;;;;;15.23;8.90;;;;;;;;;;4407278;32;20184;-79
2021/01/11 10:00:53;;;;;;;13.53;8.70;;;;;;;;;;4393766;32;20154;-77
2021/01/11 10:03:29;;;;;;;17.20;8.77;;;;;;;;;;4393265;32;20162;-77
2021/01/11 10:05:58;;;;;;;16.23;8.73;;;;;;;;;;4393711;32;20578;-77
2021/01/11 10:08:29;;;;;;;16.30;9.17;;;;;;;;;;4407413;32;20509;-76
2021/01/11 10:11:34;;;;;;;15.57;8.97;;;;;;;;;;4407383;32;20544;-77
2021/01/11 10:14:01;;;;;;;15.70;8.80;;;;;;;;;;4406633;32;20260;-77
2021/01/11 10:16:30;;;;;;;15.23;8.50;;;;;;;;;;4392930;32;20157;-78
2021/01/11 10:18:58;;;;;;;17.43;9.20;;;;;;;;;;4392644;32;20165;-77
2021/01/11 10:21:29;;;;;;;15.53;9.30;;;;;;;;;;4393035;32;20196;-77
2021/01/11 10:24:03;;;;;;;17.33;8.97;;;;;;;;;;4392889;32;20180;-78
2021/01/11 10:26:37;;;;;;;15.00;8.80;;;;;;;;;;4393162;32;20225;-77
2021/01/11 10:29:03;;;;;;;16.77;9.47;;;;;;;;;;4393679;32;20207;-77
2021/01/11 10:31:46;;;;;;;17.43;9.20;;;;;;;;;;4392902;32;20484;-77
2021/01/11 10:34:31;;;;;;;15.80;9.00;;;;;;;;;;4393482;32;20640;-79
2021/01/11 10:40:00;;;;;;;19.13;9.30;;;;;;;;;;4375213;32;20174;-79
2021/01/11 10:42:55;;;;;;;13.27;7.90;;;;;;;;;;4393398;32;20199;-78
2021/01/11 10:45:29;;;;;;;14.30;8.77;;;;;;;;;;4393088;32;20215;-78
2021/01/11 10:47:57;;;;;;;17.43;9.30;;;;;;;;;;4393036;32;20199;-78
2021/01/11 10:50:35;;;;;;;;;;;;;;;;;;;;;
2021/01/11 10:53:23;;;;;;;13.17;8.30;;;;;;;;;;4333481;33;20159;-78
2021/01/11 10:55:54;;;;;;;11.53;7.37;;;;;;;;;;4339875;32;20185;-77
2021/01/11 10:58:44;;;;;;;12.07;7.93;;;;;;;;;;4390645;32;20511;-77
2021/01/11 11:01:16;;;;;;;16.27;8.43;;;;;;;;;;4393025;32;20154;-77
2021/01/11 11:03:47;;;;;;;15.87;8.23;;;;;;;;;;4392457;32;20193;-77
2021/01/11 11:06:51;;;;;;;;;;;;;;;;;;;;;
2021/01/11 11:09:43;;;;;;;12.97;6.80;;;;;;;;;;4346516;32;20632;-78
2021/01/11 11:12:14;;;;;;;18.43;7.87;;;;;;;;;;4388617;32;20169;-78
2021/01/11 11:14:40;;;;;;;10.53;7.03;;;;;;;;;;4392231;32;20249;-78
2021/01/11 11:17:14;;;;;;;11.77;6.50;;;;;;;;;;4392706;32;20162;-77
2021/01/11 11:19:47;;;;;;;12.40;7.13;;;;;;;;;;4392257;32;20161;-78
2021/01/11 11:22:33;;;;;;;11.67;6.93;;;;;;;;;;4392343;32;20482;-79
2021/01/11 11:25:08;;;;;;;11.77;6.73;;;;;;;;;;4406080;32;20197;-77
2021/01/11 11:27:43;;;;;;;15.13;7.57;;;;;;;;;;4392333;32;20502;-77
2021/01/11 11:30:09;;;;;;;12.27;6.73;;;;;;;;;;4406575;32;20175;-77
2021/01/11 11:32:39;;;;;;;14.57;7.03;;;;;;;;;;4391787;32;20146;-78
2021/01/11 11:35:05;;;;;;;12.13;6.63;;;;;;;;;;4391889;32;20162;-78
2021/01/11 11:37:49;;;;;;;11.43;6.17;;;;;;;;;;4392001;32;20487;-78
2021/01/11 11:40:15;;;;;;;13.20;6.33;;;;;;;;;;4380612;32;20154;-77
2021/01/11 11:42:52;;;;;;;11.17;6.47;;;;;;;;;;4391693;32;20161;-77
2021/01/11 11:45:32;;;;;;;12.27;6.20;;;;;;;;;;4391040;32;20244;-78
2021/01/11 11:48:07;;;;;;;9.33;5.37;;;;;;;;;;4405836;32;20176;-78
2021/01/11 11:50:32;;;;;;;8.30;4.90;;;;;;;;;;4392106;32;20219;-79
2021/01/11 11:53:04;;;;;;;9.10;5.07;;;;;;;;;;4406543;32;20126;-77
2021/01/11 11:55:35;;;;;;;13.37;5.83;;;;;;;;;;4391650;32;20552;-79
2021/01/11 11:58:09;;;;;;;11.67;7.00;;;;;;;;;;4392117;32;20146;-78
2021/01/11 12:03:37;;;;;;;15.23;9.27;;;;;;;;;;4327905;33;20217;-76
2021/01/11 12:06:02;;;;;;;15.40;10.07;;;;;;;;;;4390036;32;20154;-76
2021/01/11 12:08:35;;;;;;;18.90;11.13;;;;;;;;;;4391833;32;20180;-76
2021/01/11 12:11:32;;;;;;;17.13;11.13;;;;;;;;;;4406490;32;20180;-77
2021/01/11 12:13:57;;;;;;;22.20;14.00;;;;;;;;;;4389208;32;20204;-78
2021/01/11 12:16:23;;;;;;;20.53;11.23;;;;;;;;;;4378937;32;20158;-77
2021/01/11 12:18:48;;;;;;;16.63;10.50;;;;;;;;;;4391142;32;20158;-78
2021/01/11 12:21:13;;;;;;;19.90;11.43;;;;;;;;;;4406159;32;20129;-78
2021/01/11 12:23:44;;;;;;;23.23;11.37;;;;;;;;;;4405757;32;20182;-78
2021/01/11 12:26:09;;;;;;;20.03;11.97;;;;;;;;;;4404451;32;20160;-77
2021/01/11 12:28:48;;;;;;;20.83;12.03;;;;;;;;;;4391032;32;20158;-77
2021/01/11 12:34:28;;;;;;;22.23;11.73;;;;;;;;;;4353182;32;20602;-78
2021/01/11 12:36:56;;;;;;;20.00;13.00;;;;;;;;;;4405788;32;20182;-77
2021/01/11 12:39:32;;;;;;;22.77;12.10;;;;;;;;;;4390881;32;20166;-77
2021/01/11 12:42:18;;;;;;;18.50;11.57;;;;;;;;;;4405461;32;20184;-76
2021/01/11 12:44:46;;;;;;;19.73;11.27;;;;;;;;;;4404850;32;20192;-77
2021/01/11 12:47:14;;;;;;;22.07;11.13;;;;;;;;;;4390937;32;20173;-77
2021/01/11 12:49:48;;;;;;;18.47;10.63;;;;;;;;;;4405353;32;20134;-77
2021/01/11 12:52:14;;;;;;;19.00;10.53;;;;;;;;;;4394149;32;20615;-77
2021/01/11 12:54:52;;;;;;;20.63;10.70;;;;;;;;;;4391715;32;20158;-77
2021/01/11 12:57:17;;;;;;;21.47;11.37;;;;;;;;;;4391146;32;20150;-77
2021/01/11 12:59:47;;;;;;;20.07;11.33;;;;;;;;;;4390932;32;20285;-77
2021/01/11 13:02:15;;;;;;;18.43;11.93;;;;;;;;;;4404576;32;20165;-77
2021/01/11 13:04:40;;;;;;;18.43;10.90;;;;;;;;;;4391446;32;20157;-77
2021/01/11 13:07:31;;;;;;;18.33;11.87;;;;;;;;;;4390837;32;20575;-77
2021/01/11 13:09:56;;;;;;;18.70;11.23;;;;;;;;;;4391607;32;20237;-77
2021/01/11 13:12:29;;;;;;;19.17;11.40;;;;;;;;;;4391446;32;20559;-78
2021/01/11 13:14:54;;;;;;;17.73;10.70;;;;;;;;;;4390907;32;20157;-77
2021/01/11 13:17:22;;;;;;;17.37;9.57;;;;;;;;;;4390971;32;20657;-77
2021/01/11 13:19:48;;;;;;;16.70;10.33;;;;;;;;;;4405456;32;20142;-77
2021/01/11 13:22:13;;;;;;;16.93;9.83;;;;;;;;;;4408367;32;20157;-77
2021/01/11 13:24:44;;;;;;;17.07;9.60;;;;;;;;;;4394205;32;20180;-77
2021/01/11 13:27:09;;;;;;;14.43;9.03;;;;;;;;;;4394656;32;20260;-77
2021/01/11 13:29:39;;;;;;;13.60;8.83;;;;;;;;;;4393873;32;20162;-77
2021/01/11 13:32:05;;;;;;;17.17;9.40;;;;;;;;;;4407570;32;20123;-77
2021/01/11 13:34:30;;;;;;;16.40;8.93;;;;;;;;;;4393568;32;20153;-77
2021/01/11 13:37:08;;;;;;;13.40;8.67;;;;;;;;;;4393669;32;20181;-77
2021/01/11 13:39:33;;;;;;;13.50;8.40;;;;;;;;;;4408244;32;20142;-78
2021/01/11 13:41:59;;;;;;;15.40;8.60;;;;;;;;;;4393977;32;20200;-77
2021/01/11 13:44:24;;;;;;;14.90;8.57;;;;;;;;;;4407581;32;20125;-77
2021/01/11 13:46:49;;;;;;;14.40;8.97;;;;;;;;;;4407151;32;20127;-77
2021/01/11 13:49:21;;;;;;;15.70;9.27;;;;;;;;;;4407258;32;20274;-77
2021/01/11 13:51:51;;;;;;;20.27;9.73;;;;;;;;;;4408087;32;20126;-76
2021/01/11 13:54:21;;;;;;;17.87;9.40;;;;;;;;;;4393451;32;20624;-77
2021/01/11 13:56:55;;;;;;;15.17;9.40;;;;;;;;;;4393948;32;20154;-77
2021/01/11 13:59:20;;;;;;;13.07;8.63;;;;;;;;;;4393734;32;20181;-77
2021/01/11 14:01:46;;;;;;;15.67;8.57;;;;;;;;;;4393378;32;20150;-77
2021/01/11 14:04:12;;;;;;;16.63;9.60;;;;;;;;;;4406875;32;20160;-77
2021/01/11 14:06:38;;;;;;;15.47;9.37;;;;;;;;;;4392920;32;20150;-77
2021/01/11 14:09:12;;;;;;;17.07;8.50;;;;;;;;;;4407037;32;20212;-78
2021/01/11 14:11:37;;;;;;;16.53;9.10;;;;;;;;;;4407240;32;20148;-79
2021/01/11 14:14:03;;;;;;;13.73;8.37;;;;;;;;;;4393103;32;20549;-77
2021/01/11 14:16:31;;;;;;;15.40;8.57;;;;;;;;;;4392989;32;20225;-77
2021/01/11 14:19:00;;;;;;;14.00;8.70;;;;;;;;;;4392894;32;20630;-77
2021/01/11 14:21:25;;;;;;;16.70;8.50;;;;;;;;;;4393478;32;20158;-78
2021/01/11 14:24:02;;;;;;;14.97;8.80;;;;;;;;;;4407763;32;20467;-77
2021/01/11 14:34:51;;;;;;;14.87;7.80;;;;;;;;;;4407217;32;20187;-77
2021/01/11 14:37:28;;;;;;;12.17;7.60;;;;;;;;;;4407580;32;20138;-78
2021/01/11 14:40:04;;;;;;;;;;;;;;;;;;;;;
2021/01/11 14:42:29;;;;;;;14.73;8.50;;;;;;;;;;4402224;32;20138;-79
2021/01/11 14:44:57;;;;;;;13.00;7.80;;;;;;;;;;4392489;32;20188;-78
2021/01/11 14:47:22;;;;;;;16.50;8.10;;;;;;;;;;4407112;32;20134;-79
2021/01/11 14:49:48;;;;;;;14.67;7.57;;;;;;;;;;4392680;32;20158;-78
2021/01/11 14:52:13;;;;;;;14.30;7.13;;;;;;;;;;4406679;32;20134;-78
2021/01/11 14:54:39;;;;;;;14.33;6.90;;;;;;;;;;4392190;32;20580;-77
2021/01/11 14:57:04;;;;;;;16.10;7.20;;;;;;;;;;4406736;32;20134;-79
2021/01/11 14:59:37;;;;;;;16.33;6.90;;;;;;;;;;4406368;32;20122;-78
2021/01/11 15:02:02;;;;;;;12.97;7.50;;;;;;;;;;4407290;32;20149;-78
2021/01/11 15:04:30;;;;;;;14.67;7.33;;;;;;;;;;4392511;32;20153;-78
2021/01/11 15:07:04;;;;;;;16.63;7.33;;;;;;;;;;4392231;32;20166;-77
2021/01/11 15:09:32;;;;;;;13.23;7.40;;;;;;;;;;4392418;32;20145;-78
2021/01/11 15:14:48;;;;;;;11.57;4.40;;;;;;;;;;4406555;32;20475;-78
2021/01/11 15:17:54;;;;;;;8.23;3.30;;;;;;;;;;4391911;32;20274;-77
2021/01/11 15:24:00;;;;;;;10.53;2.53;;;;;;;;;;4341285;33;20147;-76
2021/01/11 15:27:00;;;;;;;5.17;2.70;;;;;;;;;;4346346;32;20477;-76
2021/01/11 15:29:52;;;;;;;10.17;2.83;;;;;;;;;;4392002;32;20177;-77
2021/01/11 15:32:41;;;;;;;4.90;2.43;;;;;;;;;;4392066;32;20505;-76
2021/01/11 15:35:37;;;;;;;;;;;;;;;;;;;;;
2021/01/11 15:38:12;;;;;;;9.03;2.60;;;;;;;;;;4406138;32;20299;-77
2021/01/11 15:41:08;;;;;;;8.17;2.50;;;;;;;;;;4406099;32;20190;-76
2021/01/11 15:43:35;;;;;;;9.77;2.97;;;;;;;;;;4405053;32;20173;-78
2021/01/11 15:46:17;;;;;;;8.30;2.87;;;;;;;;;;4389562;32;20211;-78
2021/01/11 15:49:19;;;;;;;;;;;;;;;;;;;;;
2021/01/11 15:51:47;;;;;;;9.10;3.07;;;;;;;;;;4390938;32;20122;-76
2021/01/11 15:54:30;;;;;;;5.07;3.00;;;;;;;;;;4376285;32;20174;-77
2021/01/11 15:57:01;;;;;;;7.87;3.27;;;;;;;;;;4399736;32;20138;-76
2021/01/11 15:59:29;;;;;;;6.40;3.27;;;;;;;;;;4391967;32;20191;-76
2021/01/11 16:05:01;;;;;;;10.07;3.70;;;;;;;;;;4394755;32;20192;-78
2021/01/11 16:07:37;;;;;;;;;;;;;;;;;;;;;
2021/01/11 16:10:31;;;;;;;;;;;;;;;;;;;;;
2021/01/11 16:13:28;;;;;;;13.43;3.40;;;;;;;;;;4405758;32;20153;-78
2021/01/11 16:16:06;;;;;;;;;;;;;;;;;;;;;
2021/01/11 16:21:35;;;;;;;7.97;3.20;;;;;;;;;;4389609;32;20157;-77
2021/01/11 16:24:03;;;;;;;8.60;4.00;;;;;;;;;;4376272;32;20163;-77
2021/01/11 16:26:28;;;;;;;9.53;3.40;;;;;;;;;;4390638;32;20156;-77
2021/01/11 16:29:09;;;;;;;;;;;;;;;;;;;;;
2021/01/11 16:31:37;;;;;;;10.77;3.30;;;;;;;;;;4388773;32;20169;-77
2021/01/11 16:35:05;;;;;;;9.40;3.17;;;;;;;;;;4375981;32;20155;-78
2021/01/11 16:37:29;;;;;;;8.73;2.87;;;;;;;;;;4382105;32;20189;-78
2021/01/11 16:39:58;;;;;;;9.73;3.27;;;;;;;;;;4376691;32;20146;-79
2021/01/11 16:42:23;;;;;;;9.90;2.60;;;;;;;;;;4376596;32;20279;-78
2021/01/11 16:44:49;;;;;;;7.50;2.73;;;;;;;;;;4376169;32;20599;-78
2021/01/11 16:47:21;;;;;;;6.87;2.40;;;;;;;;;;4376136;32;20154;-78
2021/01/11 16:49:46;;;;;;;8.87;2.90;;;;;;;;;;4376649;32;20161;-78
2021/01/11 16:55:03;;;;;;;8.93;3.27;;;;;;;;;;4387507;32;20185;-77
2021/01/11 16:57:35;;;;;;;9.03;2.10;;;;;;;;;;4379459;32;20158;-78
2021/01/11 17:00:04;;;;;;;11.10;2.50;;;;;;;;;;4379248;32;20496;-78
2021/01/11 17:02:45;;;;;;;7.90;2.40;;;;;;;;;;4378848;32;20176;-77
2021/01/11 17:05:10;;;;;;;8.10;2.33;;;;;;;;;;4379235;32;20668;-77
2021/01/11 17:07:49;;;;;;;7.77;2.23;;;;;;;;;;4405623;32;20137;-77
2021/01/11 17:10:14;;;;;;;4.73;1.97;;;;;;;;;;4406366;32;20247;-78
2021/01/11 17:12:48;;;;;;;3.93;1.90;;;;;;;;;;4406567;32;20158;-78